| time (UTC) | temp C | wind direction | speed KPH | gust KPH | rain 1hr cm | rain 24hr cm | rain mn cm | humidity % | barometer mb |
| 20260507080903 | 12 | 226 | 4.8 | 20.9 | 0.00 | 0.64 | 0.00 | 92 | 1006.0 |
| 20260507080217 | 12 | 241 | 4.8 | 9.7 | 0.00 | 0.64 | 0.00 | 92 | 1006.0 |
| 20260507075403 | 12 | 235 | 3.2 | 11.3 | 0.00 | 0.64 | 0.00 | 92 | 1006.1 |
| 20260507074503 | 12 | 231 | 6.4 | 16.1 | 0.00 | 0.64 | 0.00 | 92 | 1005.9 |
| 20260507073817 | 12 | 237 | 4.8 | 16.1 | 0.00 | 0.64 | 0.00 | 92 | 1006.2 |
| 20260507072703 | 12 | 217 | 4.8 | 12.9 | 0.00 | 0.64 | 0.00 | 92 | 1006.2 |
| 20260507072018 | 12 | 232 | 6.4 | 12.9 | 0.00 | 0.64 | 0.00 | 92 | 1006.2 |
| 20260507071117 | 12 | 235 | 6.4 | 16.1 | 0.00 | 0.64 | 0.00 | 92 | 1006.6 |
| 20260507070004 | 12 | 236 | 6.4 | 16.1 | 0.00 | 0.64 | 0.00 | 92 | 1006.4 |
| 20260507065618 | 12 | 237 | 6.4 | 16.1 | 0.00 | 0.64 | 0.00 | 92 | 1006.3 |
| 20260507064717 | 12 | 242 | 6.4 | 14.5 | 0.00 | 0.64 | 0.00 | 92 | 1006.2 |
| 20260507063603 | 12 | 223 | 6.4 | 12.9 | 0.00 | 0.64 | 0.00 | 92 | 1006.6 |
| 20260507062918 | 12 | 230 | 4.8 | 12.9 | 0.00 | 0.64 | 0.00 | 92 | 1006.6 |
| 20260507061803 | 13 | 232 | 4.8 | 12.9 | 0.00 | 0.64 | 0.00 | 92 | 1006.6 |
| 20260507060903 | 13 | 236 | 4.8 | 14.5 | 0.00 | 0.64 | 0.00 | 92 | 1006.7 |
| 20260507060003 | 13 | 235 | 4.8 | 12.9 | 0.00 | 0.64 | 0.00 | 92 | 1006.6 |
| 20260507055403 | 13 | 226 | 6.4 | 14.5 | 0.00 | 0.64 | 0.00 | 92 | 1006.7 |
| 20260507054717 | 13 | 225 | 6.4 | 16.1 | 0.00 | 0.64 | 0.00 | 92 | 1007.0 |
| 20260507053603 | 13 | 226 | 6.4 | 19.3 | 0.00 | 0.64 | 0.00 | 92 | 1007.1 |
| 20260507053133 | 13 | 227 | 8.0 | 19.3 | 0.00 | 0.64 | 0.00 | 92 | 1007.2 |
| 20260507051803 | 13 | 232 | 8.0 | 20.9 | 0.00 | 0.64 | 0.00 | 92 | 1007.5 |
| 20260507050903 | 13 | 228 | 6.4 | 16.1 | 0.00 | 0.64 | 0.00 | 92 | 1007.5 |
| 20260507050003 | 13 | 236 | 9.7 | 25.7 | 0.00 | 0.64 | 0.00 | 92 | 1007.4 |
| 20260507045832 | 13 | 237 | 9.7 | 25.7 | 0.00 | 0.64 | 0.00 | 92 | 1007.5 |
| 20260507044503 | 13 | 220 | 9.7 | 20.9 | 0.00 | 0.64 | 0.00 | 92 | 1007.4 |
| 20260507043603 | 13 | 225 | 8.0 | 27.4 | 0.00 | 0.64 | 0.00 | 92 | 1007.4 |
| 20260507042703 | 13 | 221 | 8.0 | 24.1 | 0.00 | 0.64 | 0.00 | 92 | 1007.6 |
| 20260507041803 | 13 | 220 | 9.7 | 27.4 | 0.00 | 0.64 | 0.00 | 92 | 1007.8 |
| 20260507040903 | 13 | 230 | 8.0 | 17.7 | 0.00 | 0.64 | 0.00 | 92 | 1007.7 |
| 20260507040003 | 13 | 220 | 9.7 | 22.5 | 0.00 | 0.64 | 0.00 | 92 | 1007.6 |
| 20260507035403 | 13 | 219 | 9.7 | 22.5 | 0.00 | 0.64 | 0.64 | 92 | 1007.7 |
| 20260507034503 | 13 | 221 | 9.7 | 24.1 | 0.00 | 0.64 | 0.64 | 92 | 1008.0 |
| 20260507033603 | 13 | 223 | 9.7 | 24.1 | 0.00 | 0.64 | 0.64 | 92 | 1008.0 |
| 20260507033132 | 13 | 232 | 9.7 | 24.1 | 0.00 | 0.64 | 0.64 | 92 | 1008.0 |
| 20260507031803 | 13 | 219 | 9.7 | 22.5 | 0.00 | 0.64 | 0.64 | 92 | 1007.7 |
| 20260507031117 | 13 | 221 | 9.7 | 24.1 | 0.00 | 0.64 | 0.64 | 92 | 1007.6 |
| 20260507030217 | 13 | 221 | 9.7 | 20.9 | 0.00 | 0.64 | 0.64 | 92 | 1007.5 |
| 20260507025403 | 13 | 222 | 11.3 | 22.5 | 0.00 | 0.64 | 0.64 | 92 | 1007.7 |
| 20260507024503 | 13 | 217 | 11.3 | 22.5 | 0.00 | 0.64 | 0.64 | 92 | 1008.1 |
| 20260507023603 | 13 | 222 | 9.7 | 22.5 | 0.00 | 0.64 | 0.64 | 92 | 1008.3 |
| 20260507022703 | 13 | 218 | 11.3 | 25.7 | 0.00 | 0.64 | 0.64 | 92 | 1008.5 |
| 20260507021803 | 13 | 217 | 12.9 | 29.0 | 0.00 | 0.64 | 0.64 | 92 | 1008.5 |
| 20260507021117 | 13 | 226 | 12.9 | 25.7 | 0.00 | 0.64 | 0.64 | 92 | 1008.4 |
| 20260507020216 | 13 | 226 | 11.3 | 25.7 | 0.03 | 0.64 | 0.64 | 92 | 1008.4 |
| 20260507015403 | 13 | 219 | 12.9 | 25.7 | 0.03 | 0.64 | 0.64 | 92 | 1008.6 |
| 20260507014503 | 13 | 211 | 9.7 | 22.5 | 0.05 | 0.64 | 0.64 | 92 | 1008.8 |
| 20260507014032 | 13 | 211 | 9.7 | 19.3 | 0.10 | 0.64 | 0.64 | 92 | 1008.8 |
| 20260507012918 | 13 | 213 | 11.3 | 27.4 | 0.25 | 0.64 | 0.64 | 92 | 1008.6 |
| 20260507011803 | 13 | 220 | 9.7 | 24.1 | 0.30 | 0.64 | 0.64 | 92 | 1008.8 |
| 20260507010903 | 13 | 222 | 11.3 | 30.6 | 0.33 | 0.61 | 0.61 | 92 | 1008.8 |
| 20260507010003 | 13 | 213 | 12.9 | 35.4 | 0.33 | 0.61 | 0.61 | 92 | 1008.9 |
| 20260507005403 | 13 | 212 | 11.3 | 35.4 | 0.36 | 0.61 | 0.61 | 92 | 1008.8 |
| 20260507004503 | 13 | 212 | 11.3 | 22.5 | 0.36 | 0.58 | 0.58 | 92 | 1009.0 |
| 20260507003603 | 13 | 210 | 9.7 | 20.9 | 0.23 | 0.43 | 0.46 | 92 | 1008.6 |
| 20260507002703 | 13 | 210 | 9.7 | 29.0 | 0.18 | 0.36 | 0.36 | 92 | 1008.5 |
| 20260507002017 | 13 | 203 | 9.7 | 29.0 | 0.20 | 0.33 | 0.33 | 92 | 1008.6 |
| 20260507000903 | 13 | 198 | 9.7 | 19.3 | 0.23 | 0.28 | 0.28 | 91 | 1008.7 |
| 20260507000003 | 13 | 188 | 8.0 | 22.5 | 0.25 | 0.28 | 0.28 | 91 | 1008.7 |
| 20260506235832 | 13 | 192 | 8.0 | 22.5 | 0.23 | 0.25 | 0.25 | 91 | 1008.9 |
| 20260506234503 | 13 | 205 | 9.7 | 20.9 | 0.23 | 0.23 | 0.23 | 91 | 1009.2 |
| 20260506233818 | 13 | 198 | 9.7 | 20.9 | 0.20 | 0.20 | 0.20 | 91 | 1009.2 |
| 20260506232917 | 13 | 202 | 11.3 | 22.5 | 0.18 | 0.18 | 0.18 | 90 | 1009.3 |
| 20260506231803 | 13 | 209 | 9.7 | 24.1 | 0.13 | 0.13 | 0.13 | 90 | 1009.6 |
| 20260506230903 | 13 | 199 | 11.3 | 22.5 | 0.05 | 0.05 | 0.05 | 90 | 1009.3 |
| 20260506230003 | 13 | 199 | 11.3 | 24.1 | 0.03 | 0.03 | 0.03 | 89 | 1009.5 |
| 20260506225832 | 13 | 200 | 11.3 | 24.1 | 0.03 | 0.03 | 0.03 | 89 | 1009.4 |
| 20260506224503 | 14 | 192 | 12.9 | 25.7 | 0.00 | 0.00 | 0.00 | 88 | 1009.4 |
| 20260506223603 | 14 | 194 | 12.9 | 33.8 | 0.00 | 0.00 | 0.00 | 88 | 1009.3 |
| 20260506222917 | 14 | 189 | 11.3 | 20.9 | 0.00 | 0.00 | 0.00 | 88 | 1009.3 |
| 20260506221803 | 14 | 197 | 11.3 | 25.7 | 0.00 | 0.00 | 0.00 | 88 | 1009.4 |
| 20260506220903 | 14 | 188 | 11.3 | 25.7 | 0.00 | 0.00 | 0.00 | 87 | 1009.6 |
| 20260506220003 | 14 | 194 | 9.7 | 24.1 | 0.00 | 0.00 | 0.00 | 87 | 1009.7 |
| 20260506215617 | 14 | 194 | 9.7 | 30.6 | 0.00 | 0.00 | 0.00 | 87 | 1009.7 |
| 20260506214503 | 14 | 189 | 11.3 | 27.4 | 0.00 | 0.00 | 0.00 | 87 | 1009.6 |
| 20260506213817 | 14 | 192 | 12.9 | 25.7 | 0.00 | 0.00 | 0.00 | 87 | 1009.8 |
| 20260506212703 | 14 | 195 | 14.5 | 24.1 | 0.00 | 0.00 | 0.00 | 86 | 1009.7 |
| 20260506211803 | 14 | 192 | 12.9 | 27.4 | 0.00 | 0.00 | 0.00 | 87 | 1009.8 |
| 20260506211332 | 14 | 194 | 12.9 | 25.7 | 0.00 | 0.00 | 0.00 | 86 | 1009.8 |
| 20260506210217 | 14 | 192 | 12.9 | 30.6 | 0.00 | 0.00 | 0.00 | 86 | 1009.9 |
| 20260506205403 | 15 | 187 | 9.7 | 25.7 | 0.00 | 0.00 | 0.00 | 86 | 1010.0 |
| 20260506204717 | 15 | 185 | 9.7 | 20.9 | 0.00 | 0.00 | 0.00 | 85 | 1010.1 |
| 20260506204032 | 15 | 188 | 9.7 | 24.1 | 0.00 | 0.00 | 0.00 | 84 | 1010.2 |
| 20260506202916 | 15 | 195 | 11.3 | 25.7 | 0.00 | 0.00 | 0.00 | 84 | 1010.3 |
| 20260506201803 | 15 | 189 | 11.3 | 33.8 | 0.00 | 0.00 | 0.00 | 85 | 1010.3 |
| 20260506201117 | 15 | 186 | 11.3 | 32.2 | 0.00 | 0.00 | 0.00 | 84 | 1010.3 |
| 20260506200003 | 15 | 189 | 9.7 | 22.5 | 0.00 | 0.00 | 0.00 | 84 | 1010.5 |
| 20260506195403 | 15 | 188 | 11.3 | 22.5 | 0.00 | 0.00 | 0.00 | 85 | 1010.5 |
| 20260506194503 | 15 | 192 | 11.3 | 25.7 | 0.00 | 0.00 | 0.00 | 85 | 1010.4 |
| 20260506193603 | 15 | 189 | 12.9 | 27.4 | 0.00 | 0.00 | 0.00 | 85 | 1010.5 |
| 20260506192703 | 15 | 187 | 11.3 | 27.4 | 0.00 | 0.00 | 0.00 | 84 | 1010.4 |
| 20260506191803 | 15 | 190 | 11.3 | 29.0 | 0.00 | 0.00 | 0.00 | 84 | 1010.6 |
| 20260506190903 | 15 | 193 | 11.3 | 25.7 | 0.00 | 0.00 | 0.00 | 84 | 1010.7 |
| 20260506190003 | 15 | 189 | 9.7 | 25.7 | 0.00 | 0.00 | 0.00 | 84 | 1011.0 |
| 20260506185403 | 15 | 188 | 9.7 | 20.9 | 0.00 | 0.00 | 0.00 | 83 | 1011.2 |
| 20260506184503 | 15 | 204 | 9.7 | 22.5 | 0.00 | 0.00 | 0.00 | 83 | 1011.4 |
| 20260506183603 | 15 | 202 | 11.3 | 25.7 | 0.00 | 0.00 | 0.00 | 83 | 1011.5 |
| 20260506182703 | 16 | 199 | 11.3 | 24.1 | 0.00 | 0.00 | 0.00 | 82 | 1011.8 |
| 20260506181803 | 16 | 200 | 12.9 | 29.0 | 0.00 | 0.00 | 0.00 | 79 | 1012.0 |
| 20260506180903 | 17 | 202 | 11.3 | 24.1 | 0.00 | 0.00 | 0.00 | 78 | 1012.1 |
| 20260506180004 | 17 | 198 | 12.9 | 25.7 | 0.00 | 0.00 | 0.00 | 81 | 1012.0 |
| 20260506175617 | 16 | 199 | 12.9 | 22.5 | 0.00 | 0.00 | 0.00 | 81 | 1012.1 |
| 20260506174503 | 17 | 201 | 11.3 | 24.1 | 0.00 | 0.00 | 0.00 | 80 | 1012.0 |
| 20260506173603 | 17 | 206 | 11.3 | 29.0 | 0.00 | 0.00 | 0.00 | 81 | 1012.1 |
| 20260506172917 | 16 | 207 | 12.9 | 29.0 | 0.00 | 0.00 | 0.00 | 82 | 1012.2 |
| 20260506172016 | 16 | 208 | 11.3 | 30.6 | 0.00 | 0.00 | 0.00 | 82 | 1012.4 |
| 20260506170903 | 16 | 203 | 12.9 | 27.4 | 0.00 | 0.00 | 0.00 | 82 | 1012.6 |
| 20260506170003 | 16 | 202 | 11.3 | 24.1 | 0.00 | 0.00 | 0.00 | 82 | 1012.7 |
| 20260506165403 | 16 | 203 | 11.3 | 27.4 | 0.00 | 0.00 | 0.00 | 82 | 1012.8 |
| 20260506164503 | 16 | 200 | 12.9 | 30.6 | 0.00 | 0.00 | 0.00 | 83 | 1013.0 |
| 20260506163603 | 16 | 202 | 11.3 | 22.5 | 0.00 | 0.00 | 0.00 | 81 | 1013.2 |
| 20260506162703 | 17 | 198 | 9.7 | 25.7 | 0.00 | 0.00 | 0.00 | 80 | 1013.2 |
| 20260506161803 | 16 | 204 | 11.3 | 29.0 | 0.00 | 0.00 | 0.00 | 81 | 1013.5 |
| 20260506160903 | 16 | 196 | 11.3 | 29.0 | 0.00 | 0.00 | 0.00 | 81 | 1013.5 |
| 20260506160003 | 16 | 212 | 11.3 | 27.4 | 0.00 | 0.00 | 0.00 | 80 | 1013.6 |
| 20260506155831 | 17 | 213 | 11.3 | 27.4 | 0.00 | 0.00 | 0.00 | 80 | 1013.7 |
| 20260506154718 | 17 | 209 | 12.9 | 27.4 | 0.00 | 0.00 | 0.00 | 80 | 1014.0 |
| 20260506153603 | 17 | 205 | 14.5 | 37.0 | 0.00 | 0.00 | 0.00 | 80 | 1013.9 |
| 20260506152703 | 16 | 208 | 12.9 | 32.2 | 0.00 | 0.00 | 0.00 | 81 | 1013.9 |
| 20260506151803 | 16 | 212 | 11.3 | 25.7 | 0.00 | 0.00 | 0.00 | 82 | 1013.8 |
| 20260506150903 | 16 | 203 | 11.3 | 29.0 | 0.00 | 0.00 | 0.00 | 83 | 1013.7 |
| 20260506150003 | 16 | 191 | 9.7 | 22.5 | 0.00 | 0.00 | 0.00 | 81 | 1013.6 |
| 20260506145403 | 16 | 191 | 11.3 | 25.7 | 0.00 | 0.00 | 0.00 | 82 | 1013.5 |
| 20260506144503 | 16 | 204 | 11.3 | 32.2 | 0.00 | 0.00 | 0.00 | 82 | 1013.5 |
| 20260506143603 | 16 | 210 | 11.3 | 25.7 | 0.00 | 0.00 | 0.00 | 81 | 1013.8 |
| 20260506142918 | 16 | 205 | 9.7 | 22.5 | 0.00 | 0.00 | 0.00 | 81 | 1013.8 |
| 20260506142017 | 16 | 216 | 9.7 | 29.0 | 0.00 | 0.00 | 0.00 | 81 | 1014.0 |
| 20260506140903 | 16 | 217 | 11.3 | 22.5 | 0.00 | 0.00 | 0.00 | 82 | 1014.0 |
| 20260506140003 | 16 | 211 | 12.9 | 27.4 | 0.00 | 0.00 | 0.00 | 83 | 1014.0 |
| 20260506135403 | 16 | 213 | 12.9 | 27.4 | 0.00 | 0.00 | 0.00 | 83 | 1014.0 |
| 20260506134717 | 16 | 211 | 12.9 | 25.7 | 0.00 | 0.00 | 0.00 | 83 | 1013.9 |
| 20260506133603 | 16 | 210 | 11.3 | 22.5 | 0.00 | 0.00 | 0.00 | 83 | 1013.6 |
| 20260506133133 | 16 | 210 | 9.7 | 22.5 | 0.00 | 0.00 | 0.00 | 84 | 1013.7 |
| 20260506131803 | 15 | 216 | 9.7 | 22.5 | 0.00 | 0.00 | 0.00 | 85 | 1013.7 |
| 20260506131331 | 15 | 213 | 11.3 | 27.4 | 0.00 | 0.00 | 0.00 | 84 | 1013.9 |
| 20260506130003 | 15 | 214 | 11.3 | 25.7 | 0.00 | 0.00 | 0.00 | 85 | 1013.9 |
| 20260506125403 | 15 | 215 | 9.7 | 25.7 | 0.00 | 0.00 | 0.00 | 85 | 1013.9 |
| 20260506124503 | 15 | 210 | 9.7 | 22.5 | 0.00 | 0.00 | 0.00 | 86 | 1013.8 |
| 20260506123603 | 15 | 205 | 8.0 | 22.5 | 0.00 | 0.00 | 0.00 | 87 | 1013.9 |
| 20260506122703 | 14 | 217 | 8.0 | 22.5 | 0.00 | 0.00 | 0.00 | 88 | 1014.3 |
| 20260506121803 | 13 | 214 | 8.0 | 22.5 | 0.00 | 0.00 | 0.00 | 88 | 1014.3 |
| 20260506120903 | 13 | 217 | 8.0 | 19.3 | 0.00 | 0.00 | 0.00 | 88 | 1014.3 |
| 20260506120003 | 14 | 225 | 8.0 | 22.5 | 0.00 | 0.00 | 0.00 | 88 | 1014.4 |
| 20260506115403 | 14 | 226 | 8.0 | 22.5 | 0.00 | 0.00 | 0.00 | 88 | 1014.3 |
| 20260506114718 | 14 | 213 | 8.0 | 22.5 | 0.00 | 0.00 | 0.00 | 88 | 1014.3 |
| 20260506113603 | 14 | 224 | 9.7 | 22.5 | 0.00 | 0.00 | 0.00 | 88 | 1014.2 |
| 20260506112703 | 13 | 215 | 9.7 | 20.9 | 0.00 | 0.00 | 0.00 | 88 | 1014.1 |
| 20260506112018 | 13 | 208 | 8.0 | 17.7 | 0.00 | 0.00 | 0.00 | 89 | 1014.2 |
| 20260506111117 | 13 | 216 | 9.7 | 24.1 | 0.00 | 0.00 | 0.00 | 89 | 1014.1 |
| 20260506110003 | 13 | 228 | 8.0 | 22.5 | 0.00 | 0.00 | 0.00 | 89 | 1014.2 |
| 20260506105403 | 13 | 225 | 8.0 | 17.7 | 0.00 | 0.00 | 0.00 | 89 | 1014.1 |
| 20260506104503 | 13 | 221 | 8.0 | 29.0 | 0.00 | 0.00 | 0.00 | 89 | 1014.0 |
| 20260506103603 | 13 | 212 | 8.0 | 17.7 | 0.00 | 0.00 | 0.00 | 90 | 1014.0 |
| 20260506102703 | 13 | 222 | 8.0 | 19.3 | 0.00 | 0.00 | 0.00 | 90 | 1014.0 |
| 20260506101803 | 13 | 216 | 8.0 | 17.7 | 0.00 | 0.00 | 0.00 | 90 | 1014.3 |
| 20260506100903 | 13 | 213 | 9.7 | 22.5 | 0.00 | 0.00 | 0.00 | 90 | 1014.1 |
| 20260506100003 | 13 | 214 | 8.0 | 17.7 | 0.00 | 0.00 | 0.00 | 90 | 1014.0 |
| 20260506095833 | 13 | 214 | 8.0 | 17.7 | 0.00 | 0.00 | 0.00 | 90 | 1014.0 |
| 20260506094717 | 13 | 225 | 8.0 | 17.7 | 0.00 | 0.00 | 0.00 | 90 | 1014.2 |
| 20260506093603 | 13 | 221 | 9.7 | 22.5 | 0.00 | 0.00 | 0.00 | 90 | 1014.2 |
| 20260506092918 | 13 | 225 | 8.0 | 20.9 | 0.00 | 0.00 | 0.00 | 90 | 1014.1 |
| 20260506091803 | 13 | 226 | 8.0 | 19.3 | 0.00 | 0.00 | 0.00 | 90 | 1014.1 |
| 20260506090903 | 13 | 213 | 8.0 | 19.3 | 0.00 | 0.00 | 0.00 | 90 | 1014.2 |
| 20260506090003 | 13 | 224 | 8.0 | 22.5 | 0.00 | 0.00 | 0.00 | 90 | 1014.3 |
| 20260506085403 | 13 | 220 | 9.7 | 22.5 | 0.00 | 0.00 | 0.00 | 90 | 1014.2 |
| 20260506084717 | 13 | 221 | 8.0 | 22.5 | 0.00 | 0.00 | 0.00 | 90 | 1014.2 |
| 20260506083603 | 13 | 217 | 9.7 | 24.1 | 0.00 | 0.00 | 0.00 | 90 | 1014.3 |
| 20260506082703 | 13 | 211 | 8.0 | 22.5 | 0.00 | 0.00 | 0.00 | 90 | 1014.3 |